sensor_id;sensor_type;location;lat;lon;timestamp;P1;durP1;ratioP1;P2;durP2;ratioP2
3083;SDS011;1552;51.952;7.618;2023-03-15T00:01:06;6.40;;;2.17;;
3083;SDS011;1552;51.952;7.618;2023-03-15T00:03:32;15.40;;;2.40;;
3083;SDS011;1552;51.952;7.618;2023-03-15T00:06:01;11.73;;;2.77;;
3083;SDS011;1552;51.952;7.618;2023-03-15T00:08:28;7.30;;;1.97;;
3083;SDS011;1552;51.952;7.618;2023-03-15T00:10:57;7.93;;;2.43;;
3083;SDS011;1552;51.952;7.618;2023-03-15T00:13:25;6.27;;;1.80;;
3083;SDS011;1552;51.952;7.618;2023-03-15T00:15:52;11.90;;;2.20;;
3083;SDS011;1552;51.952;7.618;2023-03-15T00:18:21;9.90;;;2.23;;
3083;SDS011;1552;51.952;7.618;2023-03-15T00:20:47;9.13;;;1.97;;
3083;SDS011;1552;51.952;7.618;2023-03-15T00:23:13;9.00;;;1.90;;
3083;SDS011;1552;51.952;7.618;2023-03-15T00:25:42;10.23;;;2.50;;
3083;SDS011;1552;51.952;7.618;2023-03-15T00:28:09;4.47;;;2.00;;
3083;SDS011;1552;51.952;7.618;2023-03-15T00:30:36;9.50;;;2.17;;
3083;SDS011;1552;51.952;7.618;2023-03-15T00:33:03;10.20;;;2.00;;
3083;SDS011;1552;51.952;7.618;2023-03-15T00:35:30;13.10;;;2.73;;
3083;SDS011;1552;51.952;7.618;2023-03-15T00:37:57;6.90;;;3.00;;
3083;SDS011;1552;51.952;7.618;2023-03-15T00:40:24;7.20;;;1.90;;
3083;SDS011;1552;51.952;7.618;2023-03-15T00:42:50;7.33;;;1.60;;
3083;SDS011;1552;51.952;7.618;2023-03-15T00:45:17;4.33;;;1.80;;
3083;SDS011;1552;51.952;7.618;2023-03-15T00:47:46;6.13;;;2.00;;
3083;SDS011;1552;51.952;7.618;2023-03-15T00:50:13;4.83;;;2.10;;
3083;SDS011;1552;51.952;7.618;2023-03-15T00:52:39;5.20;;;1.97;;
3083;SDS011;1552;51.952;7.618;2023-03-15T00:55:08;8.30;;;2.30;;
3083;SDS011;1552;51.952;7.618;2023-03-15T00:57:37;3.97;;;1.77;;
3083;SDS011;1552;51.952;7.618;2023-03-15T01:00:04;7.70;;;1.90;;
3083;SDS011;1552;51.952;7.618;2023-03-15T01:02:30;9.90;;;2.20;;
3083;SDS011;1552;51.952;7.618;2023-03-15T01:04:58;7.33;;;2.83;;
3083;SDS011;1552;51.952;7.618;2023-03-15T01:07:25;6.03;;;1.83;;
3083;SDS011;1552;51.952;7.618;2023-03-15T01:09:52;7.47;;;1.77;;
3083;SDS011;1552;51.952;7.618;2023-03-15T01:12:18;4.53;;;1.80;;
3083;SDS011;1552;51.952;7.618;2023-03-15T01:14:44;4.80;;;2.40;;
3083;SDS011;1552;51.952;7.618;2023-03-15T01:17:10;4.00;;;1.87;;
3083;SDS011;1552;51.952;7.618;2023-03-15T01:19:37;4.70;;;1.53;;
3083;SDS011;1552;51.952;7.618;2023-03-15T01:22:04;2.47;;;1.60;;
3083;SDS011;1552;51.952;7.618;2023-03-15T01:24:31;4.00;;;1.80;;
3083;SDS011;1552;51.952;7.618;2023-03-15T01:26:57;2.50;;;1.70;;
3083;SDS011;1552;51.952;7.618;2023-03-15T01:29:23;3.73;;;2.20;;
3083;SDS011;1552;51.952;7.618;2023-03-15T01:31:50;3.53;;;2.27;;
3083;SDS011;1552;51.952;7.618;2023-03-15T01:34:16;2.70;;;2.10;;
3083;SDS011;1552;51.952;7.618;2023-03-15T01:36:42;2.60;;;1.97;;
3083;SDS011;1552;51.952;7.618;2023-03-15T01:39:10;3.13;;;2.10;;
3083;SDS011;1552;51.952;7.618;2023-03-15T01:41:36;5.27;;;2.20;;
3083;SDS011;1552;51.952;7.618;2023-03-15T01:44:02;6.33;;;2.20;;
3083;SDS011;1552;51.952;7.618;2023-03-15T01:46:29;3.13;;;2.20;;
3083;SDS011;1552;51.952;7.618;2023-03-15T01:48:59;4.60;;;2.37;;
3083;SDS011;1552;51.952;7.618;2023-03-15T01:51:29;4.47;;;2.47;;
3083;SDS011;1552;51.952;7.618;2023-03-15T01:53:59;3.13;;;2.53;;
3083;SDS011;1552;51.952;7.618;2023-03-15T01:56:27;3.63;;;2.43;;
3083;SDS011;1552;51.952;7.618;2023-03-15T01:58:54;5.03;;;2.60;;
3083;SDS011;1552;51.952;7.618;2023-03-15T02:01:22;6.73;;;2.80;;
3083;SDS011;1552;51.952;7.618;2023-03-15T02:03:50;4.60;;;3.30;;
3083;SDS011;1552;51.952;7.618;2023-03-15T02:06:18;3.80;;;2.80;;
3083;SDS011;1552;51.952;7.618;2023-03-15T02:08:48;8.17;;;3.40;;
3083;SDS011;1552;51.952;7.618;2023-03-15T02:11:16;5.07;;;3.23;;
3083;SDS011;1552;51.952;7.618;2023-03-15T02:13:46;4.00;;;3.20;;
3083;SDS011;1552;51.952;7.618;2023-03-15T02:16:13;5.10;;;3.33;;
3083;SDS011;1552;51.952;7.618;2023-03-15T02:18:39;5.20;;;3.87;;
3083;SDS011;1552;51.952;7.618;2023-03-15T02:21:07;6.83;;;4.37;;
3083;SDS011;1552;51.952;7.618;2023-03-15T02:23:36;6.30;;;4.30;;
3083;SDS011;1552;51.952;7.618;2023-03-15T02:26:05;10.83;;;5.13;;
3083;SDS011;1552;51.952;7.618;2023-03-15T02:28:36;11.07;;;5.83;;
3083;SDS011;1552;51.952;7.618;2023-03-15T02:31:02;8.67;;;5.20;;
3083;SDS011;1552;51.952;7.618;2023-03-15T02:33:30;10.10;;;5.53;;
3083;SDS011;1552;51.952;7.618;2023-03-15T02:36:05;9.17;;;4.90;;
3083;SDS011;1552;51.952;7.618;2023-03-15T02:38:31;8.17;;;5.57;;
3083;SDS011;1552;51.952;7.618;2023-03-15T02:40:58;10.77;;;5.60;;
3083;SDS011;1552;51.952;7.618;2023-03-15T02:43:25;9.03;;;5.87;;
3083;SDS011;1552;51.952;7.618;2023-03-15T02:45:54;8.90;;;6.10;;
3083;SDS011;1552;51.952;7.618;2023-03-15T02:48:21;14.53;;;6.50;;
3083;SDS011;1552;51.952;7.618;2023-03-15T02:50:47;8.87;;;6.33;;
3083;SDS011;1552;51.952;7.618;2023-03-15T02:53:13;11.53;;;6.70;;
3083;SDS011;1552;51.952;7.618;2023-03-15T02:55:40;10.13;;;6.23;;
3083;SDS011;1552;51.952;7.618;2023-03-15T02:58:06;10.43;;;6.90;;
3083;SDS011;1552;51.952;7.618;2023-03-15T03:00:32;12.80;;;6.40;;
3083;SDS011;1552;51.952;7.618;2023-03-15T03:03:00;10.37;;;6.23;;
3083;SDS011;1552;51.952;7.618;2023-03-15T03:05:26;10.07;;;6.80;;
3083;SDS011;1552;51.952;7.618;2023-03-15T03:07:53;10.10;;;6.83;;
3083;SDS011;1552;51.952;7.618;2023-03-15T03:10:19;12.10;;;6.63;;
3083;SDS011;1552;51.952;7.618;2023-03-15T03:12:46;10.57;;;6.17;;
3083;SDS011;1552;51.952;7.618;2023-03-15T03:15:17;11.80;;;7.00;;
3083;SDS011;1552;51.952;7.618;2023-03-15T03:17:43;13.20;;;7.27;;
3083;SDS011;1552;51.952;7.618;2023-03-15T03:20:12;9.87;;;6.30;;
3083;SDS011;1552;51.952;7.618;2023-03-15T03:22:39;10.07;;;6.83;;
3083;SDS011;1552;51.952;7.618;2023-03-15T03:25:06;8.27;;;6.80;;
3083;SDS011;1552;51.952;7.618;2023-03-15T03:27:33;8.57;;;6.03;;
3083;SDS011;1552;51.952;7.618;2023-03-15T03:30:00;10.10;;;6.23;;
3083;SDS011;1552;51.952;7.618;2023-03-15T03:32:27;12.37;;;7.10;;
3083;SDS011;1552;51.952;7.618;2023-03-15T03:34:53;11.37;;;6.70;;
3083;SDS011;1552;51.952;7.618;2023-03-15T03:37:21;12.90;;;6.70;;
3083;SDS011;1552;51.952;7.618;2023-03-15T03:39:47;9.23;;;6.30;;
3083;SDS011;1552;51.952;7.618;2023-03-15T03:42:13;10.40;;;6.97;;
3083;SDS011;1552;51.952;7.618;2023-03-15T03:44:39;10.13;;;6.00;;
3083;SDS011;1552;51.952;7.618;2023-03-15T03:47:06;10.67;;;7.17;;
3083;SDS011;1552;51.952;7.618;2023-03-15T03:49:32;9.97;;;6.30;;
3083;SDS011;1552;51.952;7.618;2023-03-15T03:51:59;8.33;;;5.90;;
3083;SDS011;1552;51.952;7.618;2023-03-15T03:54:27;10.80;;;6.63;;
3083;SDS011;1552;51.952;7.618;2023-03-15T03:56:53;11.30;;;7.60;;
3083;SDS011;1552;51.952;7.618;2023-03-15T03:59:19;12.20;;;7.13;;
3083;SDS011;1552;51.952;7.618;2023-03-15T04:01:46;10.70;;;6.70;;
3083;SDS011;1552;51.952;7.618;2023-03-15T04:04:12;14.20;;;7.77;;
3083;SDS011;1552;51.952;7.618;2023-03-15T04:06:38;11.93;;;6.63;;
3083;SDS011;1552;51.952;7.618;2023-03-15T04:09:09;10.70;;;6.20;;
3083;SDS011;1552;51.952;7.618;2023-03-15T04:11:37;11.73;;;6.40;;
3083;SDS011;1552;51.952;7.618;2023-03-15T04:14:06;9.17;;;6.23;;
3083;SDS011;1552;51.952;7.618;2023-03-15T04:16:32;14.43;;;7.70;;
3083;SDS011;1552;51.952;7.618;2023-03-15T04:18:59;13.23;;;7.23;;
3083;SDS011;1552;51.952;7.618;2023-03-15T04:21:25;13.30;;;6.37;;
3083;SDS011;1552;51.952;7.618;2023-03-15T04:23:55;10.10;;;7.00;;
3083;SDS011;1552;51.952;7.618;2023-03-15T04:26:22;11.77;;;6.53;;
3083;SDS011;1552;51.952;7.618;2023-03-15T04:28:52;10.87;;;6.60;;
3083;SDS011;1552;51.952;7.618;2023-03-15T04:31:18;11.00;;;6.83;;
3083;SDS011;1552;51.952;7.618;2023-03-15T04:33:44;14.70;;;7.07;;
3083;SDS011;1552;51.952;7.618;2023-03-15T04:36:10;11.07;;;6.70;;
3083;SDS011;1552;51.952;7.618;2023-03-15T04:38:42;10.87;;;6.73;;
3083;SDS011;1552;51.952;7.618;2023-03-15T04:41:10;10.50;;;6.53;;
3083;SDS011;1552;51.952;7.618;2023-03-15T04:43:37;12.30;;;7.83;;
3083;SDS011;1552;51.952;7.618;2023-03-15T04:46:04;11.47;;;6.83;;
3083;SDS011;1552;51.952;7.618;2023-03-15T04:48:31;10.87;;;6.50;;
3083;SDS011;1552;51.952;7.618;2023-03-15T04:50:57;12.10;;;6.17;;
3083;SDS011;1552;51.952;7.618;2023-03-15T04:53:24;12.97;;;6.77;;
3083;SDS011;1552;51.952;7.618;2023-03-15T04:55:50;14.73;;;7.50;;
3083;SDS011;1552;51.952;7.618;2023-03-15T04:58:17;11.50;;;6.50;;
3083;SDS011;1552;51.952;7.618;2023-03-15T05:00:43;13.47;;;7.27;;
3083;SDS011;1552;51.952;7.618;2023-03-15T05:03:11;11.57;;;6.87;;
3083;SDS011;1552;51.952;7.618;2023-03-15T05:05:37;12.80;;;6.23;;
3083;SDS011;1552;51.952;7.618;2023-03-15T05:08:04;10.53;;;6.57;;
3083;SDS011;1552;51.952;7.618;2023-03-15T05:10:30;15.00;;;5.90;;
3083;SDS011;1552;51.952;7.618;2023-03-15T05:12:57;12.07;;;6.77;;
3083;SDS011;1552;51.952;7.618;2023-03-15T05:15:23;10.03;;;6.03;;
3083;SDS011;1552;51.952;7.618;2023-03-15T05:17:50;11.33;;;6.13;;
3083;SDS011;1552;51.952;7.618;2023-03-15T05:20:20;10.47;;;6.03;;
3083;SDS011;1552;51.952;7.618;2023-03-15T05:22:47;10.80;;;5.77;;
3083;SDS011;1552;51.952;7.618;2023-03-15T05:25:13;11.00;;;5.80;;
3083;SDS011;1552;51.952;7.618;2023-03-15T05:27:40;12.70;;;6.10;;
3083;SDS011;1552;51.952;7.618;2023-03-15T05:30:07;11.03;;;5.43;;
3083;SDS011;1552;51.952;7.618;2023-03-15T05:32:33;16.77;;;5.57;;
3083;SDS011;1552;51.952;7.618;2023-03-15T05:35:03;13.50;;;5.60;;
3083;SDS011;1552;51.952;7.618;2023-03-15T05:37:31;13.83;;;5.77;;
3083;SDS011;1552;51.952;7.618;2023-03-15T05:39:59;10.57;;;5.20;;
3083;SDS011;1552;51.952;7.618;2023-03-15T05:42:26;8.27;;;4.53;;
3083;SDS011;1552;51.952;7.618;2023-03-15T05:44:53;12.70;;;5.90;;
3083;SDS011;1552;51.952;7.618;2023-03-15T05:47:20;10.07;;;5.30;;
3083;SDS011;1552;51.952;7.618;2023-03-15T05:49:47;9.03;;;5.03;;
3083;SDS011;1552;51.952;7.618;2023-03-15T05:52:13;13.50;;;5.63;;
3083;SDS011;1552;51.952;7.618;2023-03-15T05:54:41;9.40;;;5.37;;
3083;SDS011;1552;51.952;7.618;2023-03-15T05:57:07;12.70;;;5.43;;
3083;SDS011;1552;51.952;7.618;2023-03-15T05:59:34;12.80;;;5.23;;
3083;SDS011;1552;51.952;7.618;2023-03-15T06:02:00;10.90;;;5.27;;
3083;SDS011;1552;51.952;7.618;2023-03-15T06:04:26;14.60;;;6.20;;
3083;SDS011;1552;51.952;7.618;2023-03-15T06:06:52;12.33;;;5.57;;
3083;SDS011;1552;51.952;7.618;2023-03-15T06:09:19;12.43;;;5.83;;
3083;SDS011;1552;51.952;7.618;2023-03-15T06:11:46;8.67;;;5.07;;
3083;SDS011;1552;51.952;7.618;2023-03-15T06:14:13;12.50;;;6.20;;
3083;SDS011;1552;51.952;7.618;2023-03-15T06:16:39;10.57;;;5.70;;
3083;SDS011;1552;51.952;7.618;2023-03-15T06:19:05;10.90;;;5.67;;
3083;SDS011;1552;51.952;7.618;2023-03-15T06:21:32;14.30;;;6.40;;
3083;SDS011;1552;51.952;7.618;2023-03-15T06:23:58;13.97;;;6.77;;
3083;SDS011;1552;51.952;7.618;2023-03-15T06:26:24;11.43;;;5.77;;
3083;SDS011;1552;51.952;7.618;2023-03-15T06:28:52;11.80;;;6.40;;
3083;SDS011;1552;51.952;7.618;2023-03-15T06:31:18;11.73;;;5.60;;
3083;SDS011;1552;51.952;7.618;2023-03-15T06:33:45;13.53;;;6.10;;
3083;SDS011;1552;51.952;7.618;2023-03-15T06:36:11;13.30;;;6.17;;
3083;SDS011;1552;51.952;7.618;2023-03-15T06:38:38;13.80;;;6.20;;
3083;SDS011;1552;51.952;7.618;2023-03-15T06:41:06;13.90;;;6.63;;
3083;SDS011;1552;51.952;7.618;2023-03-15T06:43:32;16.33;;;6.50;;
3083;SDS011;1552;51.952;7.618;2023-03-15T06:46:00;13.53;;;6.00;;
3083;SDS011;1552;51.952;7.618;2023-03-15T06:48:27;13.80;;;6.23;;
3083;SDS011;1552;51.952;7.618;2023-03-15T06:50:53;13.77;;;5.67;;
3083;SDS011;1552;51.952;7.618;2023-03-15T06:53:20;13.90;;;5.90;;
3083;SDS011;1552;51.952;7.618;2023-03-15T06:55:46;13.83;;;5.97;;
3083;SDS011;1552;51.952;7.618;2023-03-15T06:58:14;14.20;;;5.23;;
3083;SDS011;1552;51.952;7.618;2023-03-15T07:00:40;13.17;;;5.10;;
3083;SDS011;1552;51.952;7.618;2023-03-15T07:03:09;16.47;;;6.63;;
3083;SDS011;1552;51.952;7.618;2023-03-15T07:05:35;13.17;;;5.70;;
3083;SDS011;1552;51.952;7.618;2023-03-15T07:08:02;9.63;;;5.00;;
3083;SDS011;1552;51.952;7.618;2023-03-15T07:10:28;11.87;;;5.00;;
3083;SDS011;1552;51.952;7.618;2023-03-15T07:12:54;11.00;;;5.43;;
3083;SDS011;1552;51.952;7.618;2023-03-15T07:15:21;14.50;;;5.80;;
3083;SDS011;1552;51.952;7.618;2023-03-15T07:17:47;13.80;;;5.30;;
3083;SDS011;1552;51.952;7.618;2023-03-15T07:20:15;10.53;;;4.80;;
3083;SDS011;1552;51.952;7.618;2023-03-15T07:22:42;10.50;;;4.37;;
3083;SDS011;1552;51.952;7.618;2023-03-15T07:25:09;10.33;;;4.43;;
3083;SDS011;1552;51.952;7.618;2023-03-15T07:27:36;7.70;;;4.27;;
3083;SDS011;1552;51.952;7.618;2023-03-15T07:30:02;16.03;;;5.07;;
3083;SDS011;1552;51.952;7.618;2023-03-15T07:32:29;10.70;;;4.60;;
3083;SDS011;1552;51.952;7.618;2023-03-15T07:34:56;13.00;;;5.03;;
3083;SDS011;1552;51.952;7.618;2023-03-15T07:37:26;11.97;;;4.70;;
3083;SDS011;1552;51.952;7.618;2023-03-15T07:39:53;12.30;;;4.53;;
3083;SDS011;1552;51.952;7.618;2023-03-15T07:42:19;14.37;;;4.47;;
3083;SDS011;1552;51.952;7.618;2023-03-15T07:44:45;10.37;;;4.30;;
3083;SDS011;1552;51.952;7.618;2023-03-15T07:47:12;13.97;;;4.93;;
3083;SDS011;1552;51.952;7.618;2023-03-15T07:49:38;16.57;;;5.80;;
3083;SDS011;1552;51.952;7.618;2023-03-15T07:52:05;14.97;;;4.67;;
3083;SDS011;1552;51.952;7.618;2023-03-15T07:54:32;12.37;;;5.37;;
3083;SDS011;1552;51.952;7.618;2023-03-15T07:56:59;14.33;;;5.03;;
3083;SDS011;1552;51.952;7.618;2023-03-15T07:59:25;10.50;;;5.20;;
3083;SDS011;1552;51.952;7.618;2023-03-15T08:01:51;11.40;;;5.23;;
3083;SDS011;1552;51.952;7.618;2023-03-15T08:04:18;12.90;;;4.90;;
3083;SDS011;1552;51.952;7.618;2023-03-15T08:06:45;14.27;;;4.97;;
3083;SDS011;1552;51.952;7.618;2023-03-15T08:09:11;12.03;;;4.57;;
3083;SDS011;1552;51.952;7.618;2023-03-15T08:11:39;13.83;;;4.60;;
3083;SDS011;1552;51.952;7.618;2023-03-15T08:14:05;9.17;;;4.07;;
3083;SDS011;1552;51.952;7.618;2023-03-15T08:16:31;17.20;;;5.63;;
3083;SDS011;1552;51.952;7.618;2023-03-15T08:18:58;11.33;;;4.70;;
3083;SDS011;1552;51.952;7.618;2023-03-15T08:21:24;12.70;;;4.60;;
3083;SDS011;1552;51.952;7.618;2023-03-15T08:23:50;13.50;;;4.30;;
3083;SDS011;1552;51.952;7.618;2023-03-15T08:26:16;12.43;;;4.30;;
3083;SDS011;1552;51.952;7.618;2023-03-15T08:28:44;12.37;;;3.23;;
3083;SDS011;1552;51.952;7.618;2023-03-15T08:31:11;12.13;;;4.23;;
3083;SDS011;1552;51.952;7.618;2023-03-15T08:33:37;8.27;;;3.90;;
3083;SDS011;1552;51.952;7.618;2023-03-15T08:36:04;10.20;;;3.90;;
3083;SDS011;1552;51.952;7.618;2023-03-15T08:38:30;11.73;;;3.87;;
3083;SDS011;1552;51.952;7.618;2023-03-15T08:40:56;11.03;;;4.13;;
3083;SDS011;1552;51.952;7.618;2023-03-15T08:43:23;8.40;;;3.90;;
3083;SDS011;1552;51.952;7.618;2023-03-15T08:45:51;12.70;;;4.00;;
3083;SDS011;1552;51.952;7.618;2023-03-15T08:48:17;7.93;;;4.03;;
3083;SDS011;1552;51.952;7.618;2023-03-15T08:50:43;16.53;;;3.87;;
3083;SDS011;1552;51.952;7.618;2023-03-15T08:53:10;12.07;;;4.60;;
3083;SDS011;1552;51.952;7.618;2023-03-15T08:55:36;12.47;;;3.90;;
3083;SDS011;1552;51.952;7.618;2023-03-15T08:58:03;12.97;;;4.30;;
3083;SDS011;1552;51.952;7.618;2023-03-15T09:00:29;14.20;;;4.57;;
3083;SDS011;1552;51.952;7.618;2023-03-15T09:02:58;10.63;;;4.17;;
3083;SDS011;1552;51.952;7.618;2023-03-15T09:05:24;14.77;;;4.70;;
3083;SDS011;1552;51.952;7.618;2023-03-15T09:07:51;8.00;;;3.83;;
3083;SDS011;1552;51.952;7.618;2023-03-15T09:10:18;8.77;;;3.80;;
3083;SDS011;1552;51.952;7.618;2023-03-15T09:12:45;7.33;;;4.57;;
3083;SDS011;1552;51.952;7.618;2023-03-15T09:15:12;11.57;;;5.27;;
3083;SDS011;1552;51.952;7.618;2023-03-15T09:17:38;16.03;;;4.97;;
3083;SDS011;1552;51.952;7.618;2023-03-15T09:20:08;10.60;;;4.20;;
3083;SDS011;1552;51.952;7.618;2023-03-15T09:22:35;10.07;;;4.10;;
3083;SDS011;1552;51.952;7.618;2023-03-15T09:25:01;9.40;;;4.03;;
3083;SDS011;1552;51.952;7.618;2023-03-15T09:27:28;11.07;;;4.10;;
3083;SDS011;1552;51.952;7.618;2023-03-15T09:29:55;9.37;;;4.40;;
3083;SDS011;1552;51.952;7.618;2023-03-15T09:32:21;7.03;;;3.30;;
3083;SDS011;1552;51.952;7.618;2023-03-15T09:34:47;7.47;;;3.47;;
3083;SDS011;1552;51.952;7.618;2023-03-15T09:37:16;12.03;;;3.93;;
3083;SDS011;1552;51.952;7.618;2023-03-15T09:39:42;10.00;;;4.00;;
3083;SDS011;1552;51.952;7.618;2023-03-15T09:42:10;11.20;;;3.80;;
3083;SDS011;1552;51.952;7.618;2023-03-15T09:44:41;8.97;;;3.30;;
3083;SDS011;1552;51.952;7.618;2023-03-15T09:47:13;11.83;;;3.10;;
3083;SDS011;1552;51.952;7.618;2023-03-15T09:49:43;10.47;;;3.27;;
3083;SDS011;1552;51.952;7.618;2023-03-15T09:52:12;8.87;;;2.97;;
3083;SDS011;1552;51.952;7.618;2023-03-15T09:54:45;6.43;;;3.03;;
3083;SDS011;1552;51.952;7.618;2023-03-15T09:57:13;10.40;;;2.90;;
3083;SDS011;1552;51.952;7.618;2023-03-15T09:59:42;6.90;;;3.40;;
3083;SDS011;1552;51.952;7.618;2023-03-15T10:02:12;6.43;;;2.70;;
3083;SDS011;1552;51.952;7.618;2023-03-15T10:04:40;11.83;;;3.30;;
3083;SDS011;1552;51.952;7.618;2023-03-15T10:07:11;7.03;;;3.13;;
3083;SDS011;1552;51.952;7.618;2023-03-15T10:09:37;6.43;;;2.60;;
3083;SDS011;1552;51.952;7.618;2023-03-15T10:12:07;6.53;;;2.57;;
3083;SDS011;1552;51.952;7.618;2023-03-15T10:14:38;9.87;;;3.23;;
3083;SDS011;1552;51.952;7.618;2023-03-15T10:17:09;10.13;;;2.93;;
3083;SDS011;1552;51.952;7.618;2023-03-15T10:19:38;6.70;;;2.70;;
3083;SDS011;1552;51.952;7.618;2023-03-15T10:22:10;5.30;;;2.00;;
3083;SDS011;1552;51.952;7.618;2023-03-15T10:24:42;7.17;;;2.77;;
3083;SDS011;1552;51.952;7.618;2023-03-15T10:27:15;6.23;;;2.17;;
3083;SDS011;1552;51.952;7.618;2023-03-15T10:29:44;5.87;;;2.47;;
3083;SDS011;1552;51.952;7.618;2023-03-15T10:32:13;4.63;;;2.57;;
3083;SDS011;1552;51.952;7.618;2023-03-15T10:34:41;7.13;;;2.50;;
3083;SDS011;1552;51.952;7.618;2023-03-15T10:37:08;7.90;;;2.47;;
3083;SDS011;1552;51.952;7.618;2023-03-15T10:39:34;5.67;;;2.57;;
3083;SDS011;1552;51.952;7.618;2023-03-15T10:42:01;6.27;;;1.97;;
3083;SDS011;1552;51.952;7.618;2023-03-15T10:44:29;8.90;;;2.13;;
3083;SDS011;1552;51.952;7.618;2023-03-15T10:47:02;4.37;;;1.70;;
3083;SDS011;1552;51.952;7.618;2023-03-15T10:49:34;7.20;;;1.43;;
3083;SDS011;1552;51.952;7.618;2023-03-15T10:52:00;6.73;;;2.17;;
3083;SDS011;1552;51.952;7.618;2023-03-15T10:54:28;12.47;;;2.20;;
3083;SDS011;1552;51.952;7.618;2023-03-15T10:56:57;5.40;;;1.73;;
3083;SDS011;1552;51.952;7.618;2023-03-15T10:59:25;5.93;;;1.70;;
3083;SDS011;1552;51.952;7.618;2023-03-15T11:01:54;4.80;;;1.10;;
3083;SDS011;1552;51.952;7.618;2023-03-15T11:04:32;2.67;;;1.20;;
3083;SDS011;1552;51.952;7.618;2023-03-15T11:06:59;7.40;;;1.33;;
3083;SDS011;1552;51.952;7.618;2023-03-15T11:09:36;10.30;;;1.53;;
3083;SDS011;1552;51.952;7.618;2023-03-15T11:12:03;4.90;;;1.30;;
3083;SDS011;1552;51.952;7.618;2023-03-15T11:14:34;8.27;;;1.27;;
3083;SDS011;1552;51.952;7.618;2023-03-15T11:17:03;4.87;;;1.30;;
3083;SDS011;1552;51.952;7.618;2023-03-15T11:19:30;4.47;;;1.10;;
3083;SDS011;1552;51.952;7.618;2023-03-15T11:21:56;4.60;;;1.60;;
3083;SDS011;1552;51.952;7.618;2023-03-15T11:24:24;7.33;;;1.80;;
3083;SDS011;1552;51.952;7.618;2023-03-15T11:26:52;5.43;;;1.07;;
3083;SDS011;1552;51.952;7.618;2023-03-15T11:29:20;4.13;;;1.00;;
3083;SDS011;1552;51.952;7.618;2023-03-15T11:31:47;6.60;;;2.13;;
3083;SDS011;1552;51.952;7.618;2023-03-15T11:34:16;2.57;;;1.30;;
3083;SDS011;1552;51.952;7.618;2023-03-15T11:36:47;2.93;;;1.10;;
3083;SDS011;1552;51.952;7.618;2023-03-15T11:39:28;4.67;;;1.23;;
3083;SDS011;1552;51.952;7.618;2023-03-15T11:41:59;3.73;;;0.97;;
3083;SDS011;1552;51.952;7.618;2023-03-15T11:44:28;2.67;;;1.30;;
3083;SDS011;1552;51.952;7.618;2023-03-15T11:47:00;2.43;;;1.03;;
3083;SDS011;1552;51.952;7.618;2023-03-15T11:49:30;5.20;;;1.03;;
3083;SDS011;1552;51.952;7.618;2023-03-15T11:51:58;4.50;;;1.00;;
3083;SDS011;1552;51.952;7.618;2023-03-15T11:54:25;4.63;;;1.13;;
3083;SDS011;1552;51.952;7.618;2023-03-15T11:56:54;4.93;;;1.20;;
3083;SDS011;1552;51.952;7.618;2023-03-15T11:59:23;4.10;;;1.17;;
3083;SDS011;1552;51.952;7.618;2023-03-15T12:01:51;5.20;;;1.20;;
3083;SDS011;1552;51.952;7.618;2023-03-15T12:04:40;3.17;;;1.20;;
3083;SDS011;1552;51.952;7.618;2023-03-15T12:07:22;3.90;;;1.07;;
3083;SDS011;1552;51.952;7.618;2023-03-15T12:09:49;4.87;;;1.50;;
3083;SDS011;1552;51.952;7.618;2023-03-15T12:12:35;3.27;;;1.10;;
3083;SDS011;1552;51.952;7.618;2023-03-15T12:15:02;6.17;;;1.17;;
3083;SDS011;1552;51.952;7.618;2023-03-15T12:17:36;2.73;;;1.03;;
3083;SDS011;1552;51.952;7.618;2023-03-15T12:20:07;4.60;;;1.20;;
3083;SDS011;1552;51.952;7.618;2023-03-15T12:22:34;2.13;;;1.10;;
3083;SDS011;1552;51.952;7.618;2023-03-15T12:25:03;2.47;;;0.90;;
3083;SDS011;1552;51.952;7.618;2023-03-15T12:27:32;1.63;;;0.80;;
3083;SDS011;1552;51.952;7.618;2023-03-15T12:30:00;3.10;;;1.00;;
3083;SDS011;1552;51.952;7.618;2023-03-15T12:32:27;5.13;;;1.30;;
3083;SDS011;1552;51.952;7.618;2023-03-15T12:34:55;4.57;;;1.23;;
3083;SDS011;1552;51.952;7.618;2023-03-15T12:37:25;4.33;;;1.30;;
3083;SDS011;1552;51.952;7.618;2023-03-15T12:39:57;2.73;;;1.17;;
3083;SDS011;1552;51.952;7.618;2023-03-15T12:50:37;3.93;;;1.23;;
3083;SDS011;1552;51.952;7.618;2023-03-15T12:53:20;3.67;;;1.20;;
3083;SDS011;1552;51.952;7.618;2023-03-15T12:55:48;4.47;;;1.40;;
3083;SDS011;1552;51.952;7.618;2023-03-15T12:58:15;3.40;;;1.00;;
3083;SDS011;1552;51.952;7.618;2023-03-15T13:00:42;3.57;;;1.50;;
3083;SDS011;1552;51.952;7.618;2023-03-15T13:03:10;3.03;;;1.03;;
3083;SDS011;1552;51.952;7.618;2023-03-15T13:05:42;2.53;;;1.37;;
3083;SDS011;1552;51.952;7.618;2023-03-15T13:08:15;1.83;;;0.70;;
3083;SDS011;1552;51.952;7.618;2023-03-15T13:10:52;1.30;;;0.90;;
3083;SDS011;1552;51.952;7.618;2023-03-15T13:13:29;2.43;;;0.90;;
3083;SDS011;1552;51.952;7.618;2023-03-15T13:16:07;3.40;;;1.07;;
3083;SDS011;1552;51.952;7.618;2023-03-15T13:18:40;2.90;;;1.03;;
3083;SDS011;1552;51.952;7.618;2023-03-15T13:21:11;5.83;;;1.50;;
3083;SDS011;1552;51.952;7.618;2023-03-15T13:23:40;1.60;;;1.00;;
3083;SDS011;1552;51.952;7.618;2023-03-15T13:26:20;4.53;;;1.43;;
3083;SDS011;1552;51.952;7.618;2023-03-15T13:28:50;2.53;;;1.20;;
3083;SDS011;1552;51.952;7.618;2023-03-15T13:31:19;3.73;;;1.37;;
3083;SDS011;1552;51.952;7.618;2023-03-15T13:33:47;5.43;;;1.10;;
3083;SDS011;1552;51.952;7.618;2023-03-15T13:36:14;4.23;;;1.10;;
3083;SDS011;1552;51.952;7.618;2023-03-15T13:38:44;3.20;;;1.00;;
3083;SDS011;1552;51.952;7.618;2023-03-15T13:41:15;3.67;;;1.23;;
3083;SDS011;1552;51.952;7.618;2023-03-15T13:43:41;3.00;;;1.30;;
3083;SDS011;1552;51.952;7.618;2023-03-15T13:46:08;4.23;;;1.20;;
3083;SDS011;1552;51.952;7.618;2023-03-15T13:48:35;2.33;;;1.07;;
3083;SDS011;1552;51.952;7.618;2023-03-15T13:51:03;1.37;;;0.93;;
3083;SDS011;1552;51.952;7.618;2023-03-15T13:53:31;2.97;;;1.30;;
3083;SDS011;1552;51.952;7.618;2023-03-15T13:55:59;2.53;;;1.30;;
3083;SDS011;1552;51.952;7.618;2023-03-15T13:58:26;4.33;;;1.20;;
3083;SDS011;1552;51.952;7.618;2023-03-15T14:00:56;3.37;;;1.20;;
3083;SDS011;1552;51.952;7.618;2023-03-15T14:03:24;3.30;;;1.30;;
3083;SDS011;1552;51.952;7.618;2023-03-15T14:05:51;6.70;;;1.13;;
3083;SDS011;1552;51.952;7.618;2023-03-15T14:08:19;1.77;;;1.10;;
3083;SDS011;1552;51.952;7.618;2023-03-15T14:10:56;3.33;;;1.00;;
3083;SDS011;1552;51.952;7.618;2023-03-15T14:13:24;3.43;;;1.10;;
3083;SDS011;1552;51.952;7.618;2023-03-15T14:15:54;5.40;;;1.00;;
3083;SDS011;1552;51.952;7.618;2023-03-15T14:18:22;5.20;;;1.20;;
3083;SDS011;1552;51.952;7.618;2023-03-15T14:20:52;3.13;;;0.80;;
3083;SDS011;1552;51.952;7.618;2023-03-15T14:23:21;3.30;;;1.10;;
3083;SDS011;1552;51.952;7.618;2023-03-15T14:25:49;1.97;;;0.87;;
3083;SDS011;1552;51.952;7.618;2023-03-15T14:28:16;4.70;;;1.30;;
3083;SDS011;1552;51.952;7.618;2023-03-15T14:30:49;3.00;;;1.10;;
3083;SDS011;1552;51.952;7.618;2023-03-15T14:33:21;4.00;;;0.97;;
3083;SDS011;1552;51.952;7.618;2023-03-15T14:35:52;4.43;;;0.87;;
3083;SDS011;1552;51.952;7.618;2023-03-15T14:38:20;2.50;;;1.17;;
3083;SDS011;1552;51.952;7.618;2023-03-15T14:40:47;1.57;;;0.90;;
3083;SDS011;1552;51.952;7.618;2023-03-15T14:43:14;3.17;;;1.10;;
3083;SDS011;1552;51.952;7.618;2023-03-15T14:45:41;1.93;;;1.10;;
3083;SDS011;1552;51.952;7.618;2023-03-15T14:48:11;2.43;;;1.20;;
3083;SDS011;1552;51.952;7.618;2023-03-15T14:50:39;3.27;;;1.33;;
3083;SDS011;1552;51.952;7.618;2023-03-15T14:53:06;1.33;;;0.90;;
3083;SDS011;1552;51.952;7.618;2023-03-15T14:55:33;2.13;;;0.90;;
3083;SDS011;1552;51.952;7.618;2023-03-15T14:58:00;3.93;;;1.20;;
3083;SDS011;1552;51.952;7.618;2023-03-15T15:00:27;1.57;;;1.00;;
3083;SDS011;1552;51.952;7.618;2023-03-15T15:02:54;4.50;;;1.07;;
3083;SDS011;1552;51.952;7.618;2023-03-15T15:05:23;4.33;;;1.27;;
3083;SDS011;1552;51.952;7.618;2023-03-15T15:07:50;2.77;;;0.87;;
3083;SDS011;1552;51.952;7.618;2023-03-15T15:10:19;2.60;;;1.10;;
3083;SDS011;1552;51.952;7.618;2023-03-15T15:12:45;3.17;;;1.57;;
3083;SDS011;1552;51.952;7.618;2023-03-15T15:15:13;2.13;;;0.90;;
3083;SDS011;1552;51.952;7.618;2023-03-15T15:17:40;3.43;;;0.80;;
3083;SDS011;1552;51.952;7.618;2023-03-15T15:20:06;2.20;;;1.07;;
3083;SDS011;1552;51.952;7.618;2023-03-15T15:22:37;5.63;;;1.00;;